Terminal Aerodrome Forecast
Issued by NWS Louisville, KY

Home | Current Version | Previous Version | Text Only | Print | Product List | Glossary On
Versions: 1 2 3 4 5 6 7 8 9 10 11 12 13 14 15 16 17 18
449
FTUS43 KLMK 241026 AAB
TAFBWG
TAF AMD
KBWG 241026Z 2410/2506 18014G22KT P6SM SCT028
      TEMPO 2410/2414 BKN028
     FM241600 19016G24KT P6SM BKN040
     FM250000 18010KT P6SM BKN100=

USA.gov is the U.S. government's official web portal to all federal, state and local government web resources and services.